createdAt,value
2019-05-25T00:01:57.598Z,14.03
2019-05-25T00:04:26.047Z,13.76
2019-05-25T00:06:54.448Z,13.77
2019-05-25T00:09:22.854Z,13.69
2019-05-25T00:11:51.248Z,13.54
2019-05-25T00:14:19.651Z,13.53
2019-05-25T00:16:48.067Z,13.54
2019-05-25T00:19:16.506Z,13.56
2019-05-25T00:21:44.899Z,13.54
2019-05-25T00:24:13.325Z,13.29
2019-05-25T00:26:41.718Z,13.28
2019-05-25T00:29:10.138Z,13.46
2019-05-25T00:31:38.546Z,13.29
2019-05-25T00:34:06.954Z,13.16
2019-05-25T00:36:35.348Z,13.08
2019-05-25T00:39:05.426Z,13.05
2019-05-25T00:41:33.825Z,13.19
2019-05-25T00:44:02.265Z,13.16
2019-05-25T00:46:30.646Z,13.02
2019-05-25T00:48:59.084Z,13.15
2019-05-25T00:51:27.487Z,13.02
2019-05-25T00:53:55.899Z,13.20
2019-05-25T00:56:24.307Z,13.10
2019-05-25T00:58:52.719Z,12.93
2019-05-25T01:01:24.347Z,13.09
2019-05-25T01:03:51.260Z,13.25
2019-05-25T01:06:19.693Z,13.30
2019-05-25T01:08:48.114Z,13.21
2019-05-25T01:11:16.550Z,13.25
2019-05-25T01:13:45.061Z,13.26
2019-05-25T01:16:13.464Z,13.24
2019-05-25T01:18:41.873Z,13.27
2019-05-25T01:21:10.375Z,13.26
2019-05-25T01:23:38.789Z,13.18
2019-05-25T01:26:07.196Z,13.13
2019-05-25T01:28:37.785Z,13.14
2019-05-25T01:31:05.754Z,13.14
2019-05-25T01:33:34.152Z,13.21
2019-05-25T01:36:02.562Z,13.32
2019-05-25T01:38:30.956Z,13.34
2019-05-25T01:40:59.456Z,13.29
2019-05-25T01:43:27.853Z,13.34
2019-05-25T01:45:56.269Z,13.47
2019-05-25T01:48:24.667Z,13.42
2019-05-25T01:50:53.078Z,13.47
2019-05-25T01:53:21.479Z,13.60
2019-05-25T01:55:49.889Z,13.64
2019-05-25T01:58:18.290Z,13.70
2019-05-25T02:00:46.712Z,13.76
2019-05-25T02:03:15.114Z,13.93
2019-05-25T02:05:43.806Z,13.77
2019-05-25T02:08:12.185Z,13.68
2019-05-25T02:10:40.592Z,13.85
2019-05-25T02:13:08.990Z,13.79
2019-05-25T02:15:37.396Z,13.82
2019-05-25T02:18:05.802Z,13.72
2019-05-25T02:20:34.222Z,13.82
2019-05-25T02:23:02.728Z,13.63
2019-05-25T02:25:31.212Z,13.71
2019-05-25T02:27:59.607Z,13.70
2019-05-25T02:30:28.482Z,13.62
2019-05-25T02:32:57.041Z,13.63
2019-05-25T02:35:27.593Z,13.79
2019-05-25T02:37:57.037Z,13.75
2019-05-25T02:40:25.846Z,13.57
2019-05-25T02:42:54.479Z,13.42
2019-05-25T02:45:23.052Z,13.71
2019-05-25T02:47:51.631Z,13.73
2019-05-25T02:50:20.480Z,13.66
2019-05-25T02:52:49.044Z,13.76
2019-05-25T02:55:33.027Z,13.91
2019-05-25T02:57:47.911Z,13.83
2019-05-25T03:00:18.108Z,13.92
2019-05-25T03:02:47.026Z,13.74
2019-05-25T03:05:15.939Z,13.74
2019-05-25T03:07:46.980Z,13.55
2019-05-25T03:10:15.713Z,13.50
2019-05-25T03:12:44.773Z,13.69
2019-05-25T03:15:13.872Z,13.56
2019-05-25T03:17:42.257Z,13.40
2019-05-25T03:20:10.998Z,13.41
2019-05-25T03:22:39.399Z,13.51
2019-05-25T03:25:08.051Z,13.39
2019-05-25T03:27:36.451Z,13.35
2019-05-25T03:30:07.468Z,13.62
2019-05-25T03:32:36.076Z,13.80
2019-05-25T03:35:06.629Z,13.64
2019-05-25T03:37:35.099Z,13.29
2019-05-25T03:40:05.285Z,13.52
2019-05-25T03:42:33.829Z,13.45
2019-05-25T03:45:02.244Z,13.53
2019-05-25T03:47:30.645Z,13.68
2019-05-25T03:49:59.052Z,13.62
2019-05-25T03:52:27.450Z,13.74
2019-05-25T03:54:55.859Z,13.78
2019-05-25T03:57:24.262Z,13.85
2019-05-25T03:59:52.684Z,13.75
2019-05-25T04:02:21.088Z,13.58
2019-05-25T04:04:49.485Z,13.62
2019-05-25T04:07:17.892Z,13.72
2019-05-25T04:09:46.280Z,13.58
2019-05-25T04:12:14.694Z,13.74
2019-05-25T04:14:43.103Z,13.64
2019-05-25T04:17:11.514Z,13.69
2019-05-25T04:19:39.908Z,13.66
2019-05-25T04:22:08.313Z,13.73
2019-05-25T04:24:36.719Z,13.93
2019-05-25T04:27:05.218Z,13.78
2019-05-25T04:29:33.617Z,13.88
2019-05-25T04:32:02.026Z,13.76
2019-05-25T04:34:30.422Z,13.87
2019-05-25T04:36:58.829Z,14.10
2019-05-25T04:39:27.224Z,14.07
2019-05-25T04:41:55.632Z,14.17
2019-05-25T04:44:24.037Z,14.25
2019-05-25T04:46:52.440Z,14.36
2019-05-25T04:49:20.844Z,14.47
2019-05-25T04:51:49.248Z,14.52
2019-05-25T04:54:17.657Z,14.45
2019-05-25T04:56:46.062Z,14.50
2019-05-25T04:59:14.461Z,14.50
2019-05-25T05:01:42.875Z,14.29
2019-05-25T05:04:11.276Z,14.23
2019-05-25T05:06:39.689Z,14.19
2019-05-25T05:09:08.155Z,14.14
2019-05-25T05:11:36.608Z,14.02
2019-05-25T05:14:05.157Z,14.16
2019-05-25T05:16:33.579Z,14.14
2019-05-25T05:19:01.979Z,14.01
2019-05-25T05:21:30.379Z,14.04
2019-05-25T05:23:58.785Z,13.83
2019-05-25T05:26:27.205Z,13.82
2019-05-25T05:28:55.597Z,13.72
2019-05-25T05:31:24.115Z,13.79
2019-05-25T05:33:52.581Z,13.83
2019-05-25T05:36:22.424Z,13.93
2019-05-25T05:38:51.703Z,13.90
2019-05-25T05:41:21.915Z,13.65
2019-05-25T05:43:52.871Z,13.52
2019-05-25T05:46:21.849Z,13.40
2019-05-25T05:48:51.808Z,13.68
2019-05-25T05:51:23.117Z,13.73
2019-05-25T05:53:55.108Z,13.93
2019-05-25T05:56:23.510Z,14.27
2019-05-25T05:58:51.942Z,14.55
2019-05-25T06:01:20.343Z,14.86
2019-05-25T06:03:48.745Z,14.51
2019-05-25T06:06:17.149Z,14.71
2019-05-25T06:08:45.551Z,15.09
2019-05-25T06:11:14.196Z,15.10
2019-05-25T06:13:42.601Z,14.85
2019-05-25T06:16:10.995Z,14.66
2019-05-25T06:18:39.429Z,15.04
2019-05-25T06:21:07.803Z,15.06
2019-05-25T06:23:36.253Z,15.26
2019-05-25T06:26:04.773Z,15.35
2019-05-25T06:28:33.172Z,15.59
2019-05-25T06:31:01.589Z,15.99
2019-05-25T06:33:29.983Z,16.09
2019-05-25T06:35:58.388Z,16.29
2019-05-25T06:38:26.801Z,16.34
2019-05-25T06:40:55.204Z,15.98
2019-05-25T06:43:23.603Z,16.08
2019-05-25T06:45:52.004Z,16.16
2019-05-25T06:48:20.495Z,15.93
2019-05-25T06:50:48.901Z,15.79
2019-05-25T06:53:17.413Z,15.57
2019-05-25T06:55:45.814Z,15.86
2019-05-25T06:58:14.991Z,16.08
2019-05-25T07:00:43.886Z,16.12
2019-05-25T07:03:12.297Z,16.31
2019-05-25T07:05:40.718Z,16.51
2019-05-25T07:08:09.231Z,16.82
2019-05-25T07:10:37.646Z,16.59
2019-05-25T07:13:06.133Z,16.89
2019-05-25T07:15:34.548Z,17.15
2019-05-25T07:18:02.951Z,17.24
2019-05-25T07:20:31.529Z,17.12
2019-05-25T07:22:59.932Z,17.07
2019-05-25T07:25:28.700Z,16.91
2019-05-25T07:28:00.150Z,16.49
2019-05-25T07:30:27.241Z,16.11
2019-05-25T07:32:55.800Z,15.74
2019-05-25T07:35:24.117Z,15.42
2019-05-25T07:37:52.526Z,15.24
2019-05-25T07:40:20.921Z,15.36
2019-05-25T07:42:49.330Z,15.10
2019-05-25T07:45:18.007Z,14.92
2019-05-25T07:47:46.401Z,15.01
2019-05-25T07:50:16.044Z,15.40
2019-05-25T07:52:44.451Z,15.61
2019-05-25T07:55:13.010Z,15.35
2019-05-25T07:57:41.416Z,15.25
2019-05-25T08:00:10.267Z,15.08
2019-05-25T08:02:38.672Z,15.19
2019-05-25T08:05:08.209Z,14.93
2019-05-25T08:07:36.596Z,15.02
2019-05-25T08:10:05.977Z,15.02
2019-05-25T08:12:34.365Z,15.22
2019-05-25T08:15:02.776Z,14.85
2019-05-25T08:17:31.173Z,14.46
2019-05-25T08:19:59.588Z,14.27
2019-05-25T08:22:28.066Z,14.13
2019-05-25T08:24:56.483Z,13.87
2019-05-25T08:27:24.888Z,13.83
2019-05-25T08:29:53.306Z,13.76
2019-05-25T08:32:21.706Z,13.97
2019-05-25T08:34:50.127Z,13.98
2019-05-25T08:37:18.531Z,14.00
2019-05-25T08:39:46.938Z,14.30
2019-05-25T08:42:15.405Z,14.33
2019-05-25T08:44:43.825Z,14.53
2019-05-25T08:47:12.227Z,14.55
2019-05-25T08:49:40.637Z,14.68
2019-05-25T08:52:09.037Z,14.42
2019-05-25T08:54:37.450Z,14.74
2019-05-25T08:57:05.860Z,14.75
2019-05-25T08:59:34.278Z,14.96
2019-05-25T09:02:02.690Z,15.22
2019-05-25T09:04:31.192Z,15.30
2019-05-25T09:06:59.597Z,15.48
2019-05-25T09:09:28.008Z,15.76
2019-05-25T09:11:56.742Z,16.11
2019-05-25T09:14:25.148Z,16.13
2019-05-25T09:16:53.552Z,16.53
2019-05-25T09:19:21.966Z,16.62
2019-05-25T09:22:02.095Z,16.42
2019-05-25T09:24:20.535Z,16.15
2019-05-25T09:26:48.948Z,16.03
2019-05-25T09:29:17.356Z,16.03
2019-05-25T09:31:45.763Z,16.48
2019-05-25T09:34:14.165Z,16.41
2019-05-25T09:36:42.577Z,16.46
2019-05-25T09:39:10.982Z,16.70
2019-05-25T09:41:39.391Z,16.58
2019-05-25T09:44:07.789Z,16.32
2019-05-25T09:46:36.213Z,16.22
2019-05-25T09:49:04.681Z,16.01
2019-05-25T09:51:33.084Z,16.22
2019-05-25T09:54:01.486Z,16.39
2019-05-25T09:56:29.903Z,16.43
2019-05-25T09:58:58.304Z,16.55
2019-05-25T10:01:26.725Z,16.69
2019-05-25T10:03:56.715Z,16.57
2019-05-25T10:06:25.316Z,16.65
2019-05-25T10:08:53.731Z,16.73
2019-05-25T10:11:22.157Z,16.80
2019-05-25T10:13:50.589Z,16.41
2019-05-25T10:16:19.099Z,15.85
2019-05-25T10:18:47.451Z,15.53
2019-05-25T10:21:15.839Z,15.66
2019-05-25T10:23:44.243Z,15.76
2019-05-25T10:26:12.662Z,15.64
2019-05-25T10:28:41.060Z,15.99
2019-05-25T10:31:09.472Z,16.07
2019-05-25T10:33:37.910Z,16.50
2019-05-25T10:36:06.324Z,16.82
2019-05-25T10:38:34.716Z,16.59
2019-05-25T10:41:03.125Z,16.94
2019-05-25T10:43:31.531Z,17.20
2019-05-25T10:45:59.943Z,17.27
2019-05-25T10:48:28.350Z,17.19
2019-05-25T10:50:56.754Z,17.65
2019-05-25T10:53:25.197Z,17.92
2019-05-25T10:55:53.601Z,18.03
2019-05-25T10:58:22.017Z,18.09
2019-05-25T11:00:50.988Z,18.36
2019-05-25T11:03:19.402Z,18.12
2019-05-25T11:05:47.823Z,18.47
2019-05-25T11:08:16.210Z,18.64
2019-05-25T11:10:44.630Z,17.90
2019-05-25T11:13:13.154Z,18.15
2019-05-25T11:15:41.583Z,17.85
2019-05-25T11:18:10.005Z,17.45
2019-05-25T11:20:38.411Z,17.32
2019-05-25T11:23:06.828Z,17.30
2019-05-25T11:25:35.239Z,17.58
2019-05-25T11:28:03.640Z,17.66
2019-05-25T11:30:32.055Z,17.83
2019-05-25T11:33:00.477Z,17.83
2019-05-25T11:35:28.879Z,18.03
2019-05-25T11:37:57.427Z,17.76
2019-05-25T11:40:26.360Z,17.73
2019-05-25T11:42:54.763Z,17.65
2019-05-25T11:45:23.376Z,18.12
2019-05-25T11:47:51.839Z,17.86
2019-05-25T11:50:20.309Z,17.97
2019-05-25T11:52:48.863Z,17.85
2019-05-25T11:55:17.800Z,17.76
2019-05-25T11:57:46.214Z,17.73
2019-05-25T12:00:25.029Z,17.87
2019-05-25T12:02:46.979Z,18.10
2019-05-25T12:05:16.017Z,18.20
2019-05-25T12:07:45.130Z,17.99
2019-05-25T12:10:14.122Z,17.57
2019-05-25T12:12:42.538Z,18.06
2019-05-25T12:15:11.169Z,17.85
2019-05-25T12:17:39.577Z,18.12
2019-05-25T12:20:08.719Z,18.35
2019-05-25T12:22:37.241Z,18.45
2019-05-25T12:25:06.785Z,18.46
2019-05-25T12:27:35.225Z,18.43
2019-05-25T12:30:07.246Z,18.83
2019-05-25T12:32:35.673Z,19.27
2019-05-25T12:35:06.388Z,18.86
2019-05-25T12:37:34.791Z,19.12
2019-05-25T12:40:04.269Z,18.85
2019-05-25T12:42:32.764Z,18.85
2019-05-25T12:45:01.231Z,18.94
2019-05-25T12:47:29.698Z,18.97
2019-05-25T12:49:58.097Z,18.88
2019-05-25T12:52:26.505Z,18.90
2019-05-25T12:54:54.912Z,18.98
2019-05-25T12:57:24.216Z,18.61
2019-05-25T12:59:52.745Z,18.55
2019-05-25T13:02:21.161Z,18.80
2019-05-25T13:04:49.607Z,18.52
2019-05-25T13:07:18.093Z,18.32
2019-05-25T13:09:46.480Z,18.65
2019-05-25T13:12:14.894Z,18.93
2019-05-25T13:14:43.313Z,19.16
2019-05-25T13:17:11.731Z,19.22
2019-05-25T13:19:40.137Z,19.42
2019-05-25T13:22:08.544Z,19.39
2019-05-25T13:24:37.022Z,19.49
2019-05-25T13:27:05.500Z,19.57
2019-05-25T13:29:33.903Z,19.72
2019-05-25T13:32:02.324Z,20.03
2019-05-25T13:34:30.784Z,19.85
2019-05-25T13:37:01.659Z,20.18
2019-05-25T13:39:29.332Z,19.93
2019-05-25T13:41:57.734Z,19.55
2019-05-25T13:44:26.156Z,19.42
2019-05-25T13:46:54.579Z,18.88
2019-05-25T13:49:23.004Z,19.25
2019-05-25T13:51:51.419Z,19.11
2019-05-25T13:54:19.853Z,18.75
2019-05-25T13:56:48.297Z,18.77
2019-05-25T13:59:16.812Z,18.84
2019-05-25T14:01:45.350Z,18.80
2019-05-25T14:04:13.805Z,18.86
2019-05-25T14:06:42.300Z,19.07
2019-05-25T14:09:10.708Z,19.62
2019-05-25T14:11:39.122Z,19.55
2019-05-25T14:14:07.596Z,19.84
2019-05-25T14:16:36.026Z,19.46
2019-05-25T14:19:04.498Z,19.74
2019-05-25T14:21:32.921Z,19.24
2019-05-25T14:24:01.438Z,19.19
2019-05-25T14:26:29.867Z,19.22
2019-05-25T14:28:58.387Z,18.68
2019-05-25T14:31:26.798Z,18.38
2019-05-25T14:33:55.206Z,18.21
2019-05-25T14:36:23.628Z,18.56
2019-05-25T14:38:52.033Z,18.80
2019-05-25T14:41:20.498Z,18.90
2019-05-25T14:43:48.904Z,18.74
2019-05-25T14:46:27.296Z,18.59
2019-05-25T14:48:47.471Z,18.68
2019-05-25T14:51:15.901Z,18.78
2019-05-25T14:53:44.295Z,18.72
2019-05-25T14:56:12.700Z,18.98
2019-05-25T14:58:41.140Z,19.15
2019-05-25T15:01:09.540Z,19.56
2019-05-25T15:03:37.964Z,19.68
2019-05-25T15:06:06.407Z,19.88
2019-05-25T15:08:34.803Z,19.98
2019-05-25T15:11:03.213Z,19.64
2019-05-25T15:13:31.625Z,19.27
2019-05-25T15:16:00.036Z,19.53
2019-05-25T15:18:28.526Z,19.60
2019-05-25T15:20:56.919Z,19.80
2019-05-25T15:23:25.421Z,20.12
2019-05-25T15:25:53.816Z,19.83
2019-05-25T15:28:22.232Z,19.55
2019-05-25T15:30:50.645Z,19.19
2019-05-25T15:33:19.498Z,18.61
2019-05-25T15:35:47.933Z,18.46
2019-05-25T15:38:16.355Z,18.56
2019-05-25T15:40:44.739Z,18.40
2019-05-25T15:43:13.156Z,18.56
2019-05-25T15:45:41.553Z,18.68
2019-05-25T15:48:09.982Z,18.79
2019-05-25T15:50:38.387Z,18.94
2019-05-25T15:53:06.801Z,19.09
2019-05-25T15:55:35.195Z,19.04
2019-05-25T15:58:03.600Z,19.03
2019-05-25T16:00:46.285Z,19.11
2019-05-25T16:03:15.740Z,18.97
2019-05-25T16:05:47.385Z,18.83
2019-05-25T16:08:14.279Z,18.57
2019-05-25T16:10:42.705Z,18.09
2019-05-25T16:13:11.127Z,18.08
2019-05-25T16:15:39.540Z,18.09
2019-05-25T16:18:08.008Z,18.11
2019-05-25T16:20:36.373Z,18.13
2019-05-25T16:23:04.844Z,18.40
2019-05-25T16:25:33.789Z,18.31
2019-05-25T16:28:02.219Z,18.53
2019-05-25T16:30:31.552Z,18.77
2019-05-25T16:33:11.423Z,18.65
2019-05-25T16:35:30.241Z,18.90
2019-05-25T16:37:58.830Z,19.01
2019-05-25T16:40:27.374Z,19.00
2019-05-25T16:42:55.769Z,18.96
2019-05-25T16:45:24.175Z,18.78
2019-05-25T16:47:52.586Z,18.84
2019-05-25T16:50:21.379Z,18.83
2019-05-25T16:52:49.797Z,18.65
2019-05-25T16:55:18.622Z,18.62
2019-05-25T16:57:47.024Z,18.56
2019-05-25T17:00:18.521Z,18.55
2019-05-25T17:02:46.994Z,18.60
2019-05-25T17:05:15.631Z,18.56
2019-05-25T17:07:44.034Z,18.42
2019-05-25T17:10:12.552Z,18.25
2019-05-25T17:12:40.949Z,18.27
2019-05-25T17:15:09.698Z,18.15
2019-05-25T17:17:38.103Z,18.01
2019-05-25T17:20:06.746Z,18.12
2019-05-25T17:22:35.139Z,18.13
2019-05-25T17:25:04.320Z,18.05
2019-05-25T17:27:32.722Z,18.02
2019-05-25T17:30:01.156Z,18.21
2019-05-25T17:32:29.787Z,18.15
2019-05-25T17:34:58.200Z,17.88
2019-05-25T17:37:26.600Z,17.70
2019-05-25T17:39:55.019Z,17.52
2019-05-25T17:42:23.444Z,17.36
2019-05-25T17:44:51.870Z,17.38
2019-05-25T17:47:20.286Z,17.23
2019-05-25T17:49:48.677Z,17.43
2019-05-25T17:52:17.093Z,17.22
2019-05-25T17:54:45.506Z,17.41
2019-05-25T17:57:13.911Z,17.47
2019-05-25T17:59:42.305Z,17.46
2019-05-25T18:02:10.730Z,17.65
2019-05-25T18:04:39.140Z,17.64
2019-05-25T18:07:07.548Z,17.60
2019-05-25T18:09:35.990Z,17.70
2019-05-25T18:12:04.840Z,17.83
2019-05-25T18:14:33.244Z,17.89
2019-05-25T18:17:01.755Z,17.85
2019-05-25T18:19:30.158Z,18.01
2019-05-25T18:21:59.178Z,17.99
2019-05-25T18:24:27.652Z,17.78
2019-05-25T18:26:56.069Z,17.88
2019-05-25T18:29:25.424Z,17.65
2019-05-25T18:31:53.914Z,17.66
2019-05-25T18:34:22.698Z,17.52
2019-05-25T18:36:51.157Z,17.44
2019-05-25T18:39:19.554Z,17.53
2019-05-25T18:41:47.966Z,17.45
2019-05-25T18:44:16.362Z,17.39
2019-05-25T18:46:44.766Z,17.36
2019-05-25T18:49:13.208Z,17.13
2019-05-25T18:51:41.586Z,17.14
2019-05-25T18:54:09.982Z,16.95
2019-05-25T18:56:38.393Z,16.67
2019-05-25T18:59:06.789Z,16.50
2019-05-25T19:01:35.281Z,16.48
2019-05-25T19:04:03.683Z,16.42
2019-05-25T19:06:32.104Z,16.33
2019-05-25T19:09:00.506Z,16.19
2019-05-25T19:11:28.911Z,16.05
2019-05-25T19:13:57.307Z,16.05
2019-05-25T19:16:25.712Z,16.01
2019-05-25T19:18:54.120Z,15.98
2019-05-25T19:21:22.526Z,15.97
2019-05-25T19:23:51.029Z,15.92
2019-05-25T19:26:19.412Z,15.91
2019-05-25T19:28:47.826Z,15.88
2019-05-25T19:31:16.230Z,15.86
2019-05-25T19:33:44.624Z,15.82
2019-05-25T19:36:13.029Z,15.74
2019-05-25T19:38:41.550Z,15.73
2019-05-25T19:41:09.951Z,15.67
2019-05-25T19:43:38.386Z,15.56
2019-05-25T19:46:06.876Z,15.36
2019-05-25T19:48:35.372Z,15.28
2019-05-25T19:51:03.785Z,15.32
2019-05-25T19:53:32.203Z,15.25
2019-05-25T19:56:00.699Z,15.23
2019-05-25T19:58:29.109Z,15.09
2019-05-25T20:00:57.550Z,15.06
2019-05-25T20:03:25.970Z,14.96
2019-05-25T20:05:54.421Z,14.81
2019-05-25T20:08:22.824Z,14.76
2019-05-25T20:10:55.193Z,14.75
2019-05-25T20:13:21.413Z,14.67
2019-05-25T20:15:49.812Z,14.63
2019-05-25T20:18:18.228Z,14.58
2019-05-25T20:20:46.639Z,14.53
2019-05-25T20:23:15.053Z,14.45
2019-05-25T20:25:43.462Z,14.42
2019-05-25T20:28:11.864Z,14.33
2019-05-25T20:30:40.269Z,14.28
2019-05-25T20:33:08.693Z,14.12
2019-05-25T20:35:37.085Z,14.05
2019-05-25T20:38:05.499Z,13.96
2019-05-25T20:40:33.903Z,13.96
2019-05-25T20:43:02.366Z,13.91
2019-05-25T20:45:30.703Z,13.84
2019-05-25T20:47:59.117Z,13.78
2019-05-25T20:50:27.533Z,13.56
2019-05-25T20:52:55.986Z,13.40
2019-05-25T20:55:24.379Z,13.24
2019-05-25T20:57:52.805Z,13.27
2019-05-25T21:00:24.151Z,13.24
2019-05-25T21:03:05.256Z,13.23
2019-05-25T21:05:21.894Z,13.10
2019-05-25T21:07:50.318Z,13.11
2019-05-25T21:10:18.716Z,13.01
2019-05-25T21:12:47.120Z,12.97
2019-05-25T21:15:15.592Z,12.91
2019-05-25T21:17:44.004Z,12.92
2019-05-25T21:20:13.046Z,12.87
2019-05-25T21:22:41.455Z,12.72
2019-05-25T21:25:10.704Z,12.68
2019-05-25T21:27:39.108Z,12.66
2019-05-25T21:30:08.897Z,12.61
2019-05-25T21:32:37.312Z,12.54
2019-05-25T21:35:06.848Z,12.48
2019-05-25T21:37:35.268Z,12.49
2019-05-25T21:40:05.113Z,12.36
2019-05-25T21:42:33.515Z,12.37
2019-05-25T21:45:01.929Z,12.35
2019-05-25T21:47:30.320Z,12.31
2019-05-25T21:49:58.737Z,12.31
2019-05-25T21:52:27.140Z,12.31
2019-05-25T21:54:55.550Z,12.27
2019-05-25T21:57:23.947Z,12.24
2019-05-25T21:59:52.354Z,12.13
2019-05-25T22:02:20.749Z,12.07
2019-05-25T22:04:49.161Z,11.86
2019-05-25T22:07:17.566Z,11.88
2019-05-25T22:09:46.018Z,11.77
2019-05-25T22:12:14.375Z,11.60
2019-05-25T22:14:42.785Z,11.32
2019-05-25T22:17:11.196Z,11.29
2019-05-25T22:19:39.606Z,11.33
2019-05-25T22:22:08.068Z,11.47
2019-05-25T22:24:36.472Z,11.41
2019-05-25T22:27:04.871Z,11.43
2019-05-25T22:29:33.288Z,11.31
2019-05-25T22:32:01.698Z,11.28
2019-05-25T22:34:30.103Z,11.30
2019-05-25T22:36:58.684Z,11.23
2019-05-25T22:39:27.088Z,11.23
2019-05-25T22:41:55.492Z,11.22
2019-05-25T22:44:24.094Z,11.25
2019-05-25T22:46:52.656Z,11.26
2019-05-25T22:49:21.077Z,11.23
2019-05-25T22:51:49.482Z,11.25
2019-05-25T22:54:18.842Z,11.23
2019-05-25T22:56:47.468Z,11.19
2019-05-25T22:59:15.883Z,11.21
2019-05-25T23:01:44.286Z,11.18
2019-05-25T23:04:12.702Z,11.09
2019-05-25T23:06:56.659Z,11.09
2019-05-25T23:09:11.234Z,11.12
2019-05-25T23:11:39.632Z,11.11
2019-05-25T23:14:09.911Z,11.15
2019-05-25T23:16:38.402Z,11.11
2019-05-25T23:19:06.816Z,11.10
2019-05-25T23:21:35.213Z,11.11
2019-05-25T23:24:03.674Z,11.09
2019-05-25T23:26:32.086Z,11.08
2019-05-25T23:29:00.504Z,11.05
2019-05-25T23:31:28.904Z,11.09
2019-05-25T23:33:57.323Z,11.05
2019-05-25T23:36:25.719Z,11.06
2019-05-25T23:38:54.130Z,11.00
2019-05-25T23:41:22.537Z,10.99
2019-05-25T23:43:50.940Z,10.97
2019-05-25T23:46:19.348Z,10.95
2019-05-25T23:48:47.765Z,10.97
2019-05-25T23:51:16.207Z,10.87
2019-05-25T23:53:44.613Z,10.85
2019-05-25T23:56:13.292Z,10.83
2019-05-25T23:58:41.719Z,10.82
